Time;durP1;ratioP1;P1;durP2;ratioP2;P2;SDS_P1;SDS_P2;PMS_P1;PMS_P2;Temp;Humidity;BMP_temperature;BMP_pressure;BME280_temperature;BME280_humidity;BME280_pressure;Samples;Min_cycle;Max_cycle;Signal;HPM_P1;HPM_P2
2022/10/23 00:00:44;;;;;;;0.60;0.20;;;22.90;60.00;;;;;;6259835;28;20036;-57
2022/10/23 00:03:46;;;;;;;0.20;0.20;;;22.90;59.90;;;;;;6264847;28;20978;-56
2022/10/23 00:06:49;;;;;;;0.45;0.20;;;23.00;59.70;;;;;;6247099;28;20052;-56
2022/10/23 00:09:51;;;;;;;0.15;0.15;;;23.00;59.70;;;;;;6269088;28;20052;-57
2022/10/23 00:12:54;;;;;;;0.50;0.22;;;22.90;59.60;;;;;;6256215;28;20052;-55
2022/10/23 00:15:55;;;;;;;0.50;0.20;;;23.00;59.50;;;;;;6261780;28;20338;-54
2022/10/23 00:18:57;;;;;;;0.40;0.30;;;22.80;59.50;;;;;;6259736;28;20113;-55
2022/10/23 00:21:58;;;;;;;;;;;22.80;59.50;;;;;;6262413;28;20044;-57
2022/10/23 00:24:59;;;;;;;0.28;0.15;;;22.60;59.70;;;;;;6267517;28;19938;-56
2022/10/23 00:28:01;;;;;;;;;;;23.20;59.80;;;;;;6265679;28;20072;-55
2022/10/23 00:31:04;;;;;;;0.20;0.20;;;23.30;59.80;;;;;;6262086;28;19935;-56
2022/10/23 00:34:07;;;;;;;0.50;0.20;;;22.80;59.30;;;;;;6265491;28;20533;-58
2022/10/23 00:37:09;;;;;;;0.20;0.20;;;23.60;59.80;;;;;;6263147;28;20438;-52
2022/10/23 00:40:11;;;;;;;0.30;0.20;;;23.30;59.40;;;;;;6237911;28;20293;-53
2022/10/23 00:43:18;;;;;;;0.13;0.13;;;23.30;59.30;;;;;;6240631;28;20048;-53
2022/10/23 00:46:19;;;;;;;0.40;0.20;;;22.60;59.00;;;;;;6258334;28;20117;-51
2022/10/23 00:49:22;;;;;;;;;;;23.10;59.40;;;;;;6264446;28;20881;-55
2022/10/23 00:52:23;;;;;;;0.30;0.20;;;23.20;59.50;;;;;;6260953;28;20001;-57
2022/10/23 00:55:25;;;;;;;;;;;23.30;59.50;;;;;;6262181;28;20051;-58
2022/10/23 00:58:28;;;;;;;0.30;0.30;;;22.70;59.30;;;;;;6265092;28;20898;-55
2022/10/23 01:01:29;;;;;;;0.30;0.20;;;23.20;59.30;;;;;;6259694;28;20075;-57
2022/10/23 01:04:32;;;;;;;0.20;0.20;;;23.10;59.30;;;;;;6264272;28;20052;-57
2022/10/23 01:07:41;;;;;;;0.20;0.10;;;22.90;59.10;;;;;;6259672;28;20101;-56
2022/10/23 01:10:49;;;;;;;0.52;0.28;;;23.10;59.10;;;;;;6256465;28;20056;-57
2022/10/23 01:14:00;;;;;;;0.35;0.20;;;22.70;58.80;;;;;;6246477;28;20042;-57
2022/10/23 01:17:08;;;;;;;0.28;0.15;;;22.60;59.10;;;;;;6260592;28;20040;-58
2022/10/23 01:20:28;;;;;;;0.20;0.20;;;22.80;58.80;;;;;;6231155;28;20043;-57
2022/10/23 01:23:46;;;;;;;0.10;0.10;;;23.00;58.90;;;;;;6263737;28;20064;-57
2022/10/23 01:27:10;;;;;;;0.20;0.20;;;22.90;58.70;;;;;;6260937;28;20040;-56
2022/10/23 01:30:15;;;;;;;0.13;0.10;;;22.90;58.70;;;;;;6244889;28;20044;-50
2022/10/23 01:33:24;;;;;;;0.47;0.30;;;22.50;58.60;;;;;;6261912;28;20069;-56
2022/10/23 01:36:28;;;;;;;0.30;0.20;;;22.80;58.80;;;;;;6257070;28;20052;-51
2022/10/23 01:39:37;;;;;;;0.40;0.28;;;23.20;58.80;;;;;;6254289;28;20368;-57
2022/10/23 01:42:45;;;;;;;0.20;0.10;;;22.60;58.40;;;;;;6241030;28;20044;-57
2022/10/23 01:45:50;;;;;;;0.20;0.20;;;23.40;58.90;;;;;;6246698;28;20052;-54
2022/10/23 01:48:56;;;;;;;0.20;0.20;;;23.10;58.80;;;;;;6248194;28;20130;-57
2022/10/23 01:52:01;;;;;;;0.17;0.10;;;23.00;58.70;;;;;;6262332;28;20155;-56
2022/10/23 01:55:05;;;;;;;0.25;0.25;;;22.90;58.60;;;;;;6265260;28;20118;-57
2022/10/23 01:58:10;;;;;;;0.40;0.15;;;22.90;58.50;;;;;;6249674;28;20140;-57
2022/10/23 02:01:18;;;;;;;0.10;0.10;;;23.40;58.80;;;;;;6261365;28;20052;-58
2022/10/23 02:04:28;;;;;;;0.20;0.20;;;23.00;58.70;;;;;;6262950;28;20974;-56
2022/10/23 02:07:33;;;;;;;0.30;0.20;;;23.20;58.90;;;;;;6244677;28;20040;-56
2022/10/23 02:10:43;;;;;;;0.17;0.17;;;22.80;58.70;;;;;;6262601;28;20802;-57
2022/10/23 02:13:54;;;;;;;0.20;0.20;;;23.30;58.80;;;;;;6263760;28;20073;-56
2022/10/23 02:16:59;;;;;;;0.30;0.20;;;22.70;58.50;;;;;;6255248;28;21219;-56
2022/10/23 02:20:13;;;;;;;0.20;0.20;;;23.10;58.70;;;;;;6253009;28;20255;-56
2022/10/23 02:23:21;;;;;;;0.60;0.20;;;23.00;58.60;;;;;;6251812;28;20048;-53
2022/10/23 02:26:26;;;;;;;0.17;0.17;;;23.10;58.80;;;;;;6253511;28;20084;-54
2022/10/23 02:29:34;;;;;;;0.10;0.10;;;23.40;59.00;;;;;;6249179;28;20072;-53
2022/10/23 02:32:40;;;;;;;0.15;0.15;;;22.60;58.60;;;;;;6251828;28;20051;-51
2022/10/23 02:35:45;;;;;;;0.35;0.30;;;22.60;58.50;;;;;;6219547;28;20056;-53
2022/10/23 02:38:55;;;;;;;0.10;0.10;;;23.10;58.90;;;;;;6233637;28;20051;-53
2022/10/23 02:42:08;;;;;;;0.20;0.20;;;22.90;59.00;;;;;;6253543;28;20040;-53
2022/10/23 02:45:23;;;;;;;0.22;0.20;;;23.00;58.80;;;;;;6261620;28;20444;-51
2022/10/23 02:48:30;;;;;;;0.93;0.22;;;23.00;58.80;;;;;;6253445;28;20051;-52
2022/10/23 02:51:51;;;;;;;0.20;0.10;;;22.80;58.90;;;;;;6253182;28;20180;-54
2022/10/23 02:55:08;;;;;;;0.10;0.10;;;22.40;58.50;;;;;;6255590;28;20055;-54
2022/10/23 02:58:28;;;;;;;0.20;0.10;;;22.90;58.90;;;;;;6252091;28;20036;-55
2022/10/23 03:01:40;;;;;;;0.22;0.20;;;22.80;58.90;;;;;;6249142;28;20821;-51
2022/10/23 03:04:43;;;;;;;0.38;0.20;;;22.70;58.80;;;;;;6238167;28;20771;-56
2022/10/23 03:07:45;;;;;;;0.20;0.20;;;23.00;58.90;;;;;;6252698;28;20493;-55
2022/10/23 03:10:47;;;;;;;0.35;0.30;;;23.00;59.00;;;;;;6250663;28;20072;-54
2022/10/23 03:13:51;;;;;;;0.28;0.20;;;23.00;59.20;;;;;;6251598;28;20060;-51
2022/10/23 03:16:53;;;;;;;0.68;0.30;;;22.60;58.90;;;;;;6252329;28;20777;-53
2022/10/23 03:19:54;;;;;;;0.35;0.20;;;23.10;59.30;;;;;;6255178;28;20039;-52
2022/10/23 03:22:55;;;;;;;;;;;23.20;60.10;;;;;;6255582;28;20161;-52
2022/10/23 03:25:57;;;;;;;0.20;0.20;;;22.30;59.30;;;;;;6258041;28;20248;-53
2022/10/23 03:29:17;;;;;;;0.30;0.22;;;23.00;59.60;;;;;;6254185;28;20629;-52
2022/10/23 03:32:20;;;;;;;0.20;0.20;;;23.00;59.60;;;;;;6255544;28;20287;-51
2022/10/23 03:35:22;;;;;;;0.47;0.30;;;23.10;59.60;;;;;;6259981;28;20043;-50
2022/10/23 03:38:23;;;;;;;0.30;0.20;;;22.90;59.60;;;;;;6257686;28;20989;-52
2022/10/23 03:41:25;;;;;;;0.50;0.17;;;23.00;59.70;;;;;;6254378;28;20799;-54
2022/10/23 03:44:29;;;;;;;0.20;0.20;;;22.90;59.60;;;;;;6254934;28;20792;-51
2022/10/23 03:47:34;;;;;;;0.22;0.20;;;23.00;59.60;;;;;;6256788;28;20578;-52
2022/10/23 03:50:35;;;;;;;0.20;0.20;;;23.30;59.80;;;;;;6253615;28;20114;-55
2022/10/23 03:53:37;;;;;;;;;;;22.50;59.60;;;;;;6261315;28;20051;-50
2022/10/23 03:56:38;;;;;;;0.60;0.10;;;22.60;59.90;;;;;;6255487;28;20026;-54
2022/10/23 03:59:42;;;;;;;0.20;0.17;;;22.80;60.00;;;;;;6257046;28;20079;-53
2022/10/23 04:02:43;;;;;;;;;;;23.20;60.10;;;;;;6253011;28;20052;-51
2022/10/23 04:05:46;;;;;;;0.40;0.20;;;22.50;60.60;;;;;;6254133;28;20011;-54
2022/10/23 04:08:47;;;;;;;0.30;0.20;;;23.00;60.10;;;;;;6253089;28;20085;-54
2022/10/23 04:11:51;;;;;;;0.22;0.20;;;23.00;60.10;;;;;;6254012;28;20613;-50
2022/10/23 04:14:53;;;;;;;0.50;0.20;;;22.60;60.00;;;;;;6257944;28;20306;-55
2022/10/23 04:17:56;;;;;;;0.43;0.40;;;23.00;60.10;;;;;;6254525;28;20035;-53
2022/10/23 04:20:57;;;;;;;0.20;0.20;;;22.90;60.10;;;;;;6246376;28;20284;-54
2022/10/23 04:23:59;;;;;;;;;;;23.00;60.30;;;;;;6251663;28;20317;-51
2022/10/23 04:27:00;;;;;;;0.10;0.10;;;22.60;60.60;;;;;;6253489;28;20013;-54
2022/10/23 04:30:04;;;;;;;0.40;0.20;;;23.10;60.50;;;;;;6249925;28;20176;-53
2022/10/23 04:33:06;;;;;;;0.22;0.22;;;22.90;60.20;;;;;;6251017;28;20044;-53
2022/10/23 04:36:08;;;;;;;0.20;0.17;;;22.80;60.30;;;;;;6254683;28;20362;-53
2022/10/23 04:39:10;;;;;;;0.30;0.25;;;22.70;60.20;;;;;;6235172;28;20671;-53
2022/10/23 04:42:11;;;;;;;0.32;0.10;;;22.70;60.40;;;;;;6252563;28;20489;-50
2022/10/23 04:45:14;;;;;;;0.20;0.20;;;22.90;60.40;;;;;;6251325;28;20048;-54
2022/10/23 04:48:17;;;;;;;0.22;0.13;;;22.70;60.40;;;;;;6250785;28;20464;-51
2022/10/23 04:51:37;;;;;;;0.70;0.30;;;23.00;60.60;;;;;;6248905;28;20590;-53
2022/10/23 04:54:47;;;;;;;0.10;0.10;;;22.70;60.40;;;;;;6235877;28;20593;-53
2022/10/23 04:58:00;;;;;;;0.20;0.20;;;23.00;60.80;;;;;;6251698;28;20155;-52
2022/10/23 05:01:02;;;;;;;;;;;22.80;60.70;;;;;;6250587;28;20048;-55
2022/10/23 05:04:04;;;;;;;;;;;22.60;60.80;;;;;;6254066;28;20168;-54
2022/10/23 05:07:16;;;;;;;0.30;0.20;;;23.00;61.10;;;;;;6246732;28;20444;-56
2022/10/23 05:10:27;;;;;;;0.20;0.20;;;23.10;60.90;;;;;;6250768;28;20044;-55
2022/10/23 05:13:36;;;;;;;0.38;0.20;;;22.70;60.80;;;;;;6253992;28;20155;-52
2022/10/23 05:16:42;;;;;;;0.73;0.30;;;22.70;60.90;;;;;;6256144;28;20593;-56
2022/10/23 05:19:51;;;;;;;0.20;0.20;;;22.90;60.90;;;;;;6236219;28;20044;-50
2022/10/23 05:22:58;;;;;;;0.22;0.22;;;22.70;60.60;;;;;;6249947;28;20040;-51
2022/10/23 05:26:02;;;;;;;0.40;0.22;;;22.80;60.90;;;;;;6234630;28;20068;-51
2022/10/23 05:29:05;;;;;;;0.20;0.20;;;23.00;61.00;;;;;;6251388;28;21582;-51
2022/10/23 05:32:10;;;;;;;0.35;0.20;;;22.60;61.00;;;;;;6243500;28;20574;-52
2022/10/23 05:35:16;;;;;;;0.90;0.40;;;22.70;60.80;;;;;;6245875;28;21534;-53
2022/10/23 05:38:21;;;;;;;0.30;0.15;;;22.60;60.70;;;;;;6248478;28;20170;-52
2022/10/23 05:41:23;;;;;;;0.20;0.20;;;22.90;61.10;;;;;;6240183;28;20441;-55
2022/10/23 05:44:28;;;;;;;0.30;0.30;;;22.70;61.00;;;;;;6249624;28;20422;-51
2022/10/23 05:47:43;;;;;;;0.20;0.20;;;23.00;61.20;;;;;;6250533;28;20312;-52
2022/10/23 05:51:02;;;;;;;0.35;0.30;;;23.00;61.10;;;;;;6230477;28;20558;-54
2022/10/23 05:54:15;;;;;;;0.30;0.20;;;22.70;61.00;;;;;;6240138;28;20515;-55
2022/10/23 05:57:31;;;;;;;0.20;0.20;;;22.70;61.30;;;;;;6247739;28;20048;-55
2022/10/23 06:00:36;;;;;;;0.20;0.20;;;22.60;61.00;;;;;;6221408;28;20864;-52
2022/10/23 06:03:58;;;;;;;0.43;0.20;;;22.50;61.00;;;;;;6247635;28;20117;-53
2022/10/23 06:07:09;;;;;;;0.25;0.20;;;22.80;61.40;;;;;;6233588;28;20489;-51
2022/10/23 06:10:15;;;;;;;0.30;0.20;;;23.00;61.20;;;;;;6242208;28;20049;-53
2022/10/23 06:13:20;;;;;;;0.40;0.30;;;22.60;61.10;;;;;;6245710;28;20327;-53
2022/10/23 06:16:24;;;;;;;;;;;22.90;61.30;;;;;;6246164;28;20115;-55
2022/10/23 06:19:26;;;;;;;0.22;0.20;;;22.40;61.10;;;;;;6241552;28;20403;-51
2022/10/23 06:22:31;;;;;;;0.28;0.20;;;22.90;61.10;;;;;;6241402;28;20052;-52
2022/10/23 06:25:50;;;;;;;0.20;0.20;;;23.40;61.40;;;;;;6241512;28;20325;-53
2022/10/23 06:28:52;;;;;;;0.20;0.20;;;22.50;60.70;;;;;;6226912;28;20212;-52
2022/10/23 06:31:53;;;;;;;;;;;22.90;61.20;;;;;;6246312;28;20466;-53
2022/10/23 06:34:58;;;;;;;0.30;0.20;;;23.00;61.40;;;;;;6246578;28;19975;-54
2022/10/23 06:38:01;;;;;;;0.30;0.20;;;22.60;60.90;;;;;;6246354;28;20052;-51
2022/10/23 06:41:13;;;;;;;;;;;23.00;61.00;;;;;;6246279;28;20081;-52
2022/10/23 06:44:15;;;;;;;0.30;0.20;;;22.40;60.90;;;;;;6224308;28;20278;-53
2022/10/23 06:47:22;;;;;;;0.30;0.20;;;22.80;60.90;;;;;;6241064;28;20052;-55
2022/10/23 06:50:36;;;;;;;0.30;0.20;;;22.60;60.90;;;;;;6243587;28;20454;-51
2022/10/23 06:53:43;;;;;;;0.20;0.20;;;23.00;60.90;;;;;;6247199;28;20288;-51
2022/10/23 06:57:04;;;;;;;0.15;0.15;;;22.80;60.90;;;;;;6232120;28;20269;-51
2022/10/23 07:00:14;;;;;;;0.30;0.30;;;22.80;61.50;;;;;;6247327;28;20226;-52
2022/10/23 07:03:24;;;;;;;0.63;0.20;;;22.70;60.90;;;;;;6234866;28;20462;-53
2022/10/23 07:06:27;;;;;;;0.43;0.30;;;22.90;61.00;;;;;;6250946;28;20694;-52
2022/10/23 07:09:29;;;;;;;0.20;0.20;;;23.00;61.30;;;;;;6251609;28;20048;-52
2022/10/23 07:12:38;;;;;;;0.10;0.10;;;23.00;61.00;;;;;;6242954;28;20041;-54
2022/10/23 07:15:55;;;;;;;0.60;0.30;;;22.70;61.10;;;;;;6249329;28;20057;-52
2022/10/23 07:19:03;;;;;;;0.20;0.20;;;22.90;61.00;;;;;;6248464;28;20032;-54
2022/10/23 07:22:15;;;;;;;0.20;0.20;;;23.20;61.20;;;;;;6235698;28;20975;-54
2022/10/23 07:25:35;;;;;;;0.40;0.30;;;22.60;60.90;;;;;;6247589;28;20352;-53
2022/10/23 07:28:37;;;;;;;0.77;0.28;;;23.00;61.20;;;;;;6244864;28;20511;-56
2022/10/23 07:31:39;;;;;;;0.35;0.28;;;22.80;61.20;;;;;;6244474;28;20070;-55
2022/10/23 07:35:00;;;;;;;0.25;0.20;;;23.10;61.40;;;;;;6243852;28;20059;-53
2022/10/23 07:38:05;;;;;;;0.50;0.40;;;23.00;61.10;;;;;;6240929;28;20129;-54
2022/10/23 07:41:12;;;;;;;0.32;0.20;;;22.80;61.30;;;;;;6239319;28;20681;-54
2022/10/23 07:44:14;;;;;;;0.30;0.20;;;23.00;61.20;;;;;;6243822;28;20649;-53
2022/10/23 07:47:15;;;;;;;0.52;0.40;;;23.00;61.20;;;;;;6226414;28;20466;-55
2022/10/23 07:50:20;;;;;;;0.40;0.30;;;23.00;61.50;;;;;;6247089;28;20290;-55
2022/10/23 07:53:24;;;;;;;0.22;0.22;;;22.80;61.30;;;;;;6244229;28;20048;-54
2022/10/23 07:56:30;;;;;;;0.40;0.20;;;23.20;61.60;;;;;;6231860;28;20352;-57
2022/10/23 07:59:45;;;;;;;0.55;0.20;;;23.10;61.50;;;;;;6244866;28;20339;-53
2022/10/23 08:02:48;;;;;;;0.40;0.25;;;22.90;61.40;;;;;;6242846;28;20479;-53
2022/10/23 08:05:51;;;;;;;0.50;0.22;;;22.90;61.50;;;;;;6245536;28;20072;-52
2022/10/23 08:08:53;;;;;;;0.20;0.20;;;22.60;61.20;;;;;;6248518;28;20482;-53
2022/10/23 08:11:55;;;;;;;0.32;0.30;;;22.90;61.70;;;;;;6243875;28;20499;-55
2022/10/23 08:15:00;;;;;;;0.40;0.30;;;23.20;61.60;;;;;;6246442;28;20526;-52
2022/10/23 08:18:10;;;;;;;0.40;0.28;;;22.90;61.70;;;;;;6248038;28;20048;-53
2022/10/23 08:21:18;;;;;;;0.35;0.28;;;22.60;61.60;;;;;;6249674;28;20558;-55
2022/10/23 08:24:20;;;;;;;0.47;0.30;;;22.50;61.10;;;;;;6231551;28;20288;-55
2022/10/23 08:27:23;;;;;;;0.50;0.30;;;23.10;61.90;;;;;;6249591;28;20453;-57
2022/10/23 08:30:25;;;;;;;0.40;0.30;;;22.60;61.60;;;;;;6246878;28;20714;-51
2022/10/23 08:33:26;;;;;;;0.30;0.30;;;23.10;62.00;;;;;;6247984;28;20153;-53
2022/10/23 08:36:28;;;;;;;;;;;23.10;62.10;;;;;;6246469;28;20527;-53
2022/10/23 08:39:30;;;;;;;0.25;0.25;;;22.60;61.90;;;;;;6248528;28;19931;-55
2022/10/23 08:42:43;;;;;;;0.47;0.30;;;22.90;62.00;;;;;;6248573;28;20056;-54
2022/10/23 08:45:48;;;;;;;0.55;0.32;;;23.10;62.00;;;;;;6243899;28;20988;-57
2022/10/23 08:49:22;;;;;;;0.73;0.40;;;22.90;62.00;;;;;;6231372;28;20075;-56
2022/10/23 08:52:40;;;;;;;0.28;0.28;;;23.00;62.10;;;;;;6243390;28;20051;-51
2022/10/23 08:55:45;;;;;;;0.32;0.20;;;22.30;61.70;;;;;;6229613;28;20516;-54
2022/10/23 08:58:52;;;;;;;0.40;0.20;;;22.90;62.10;;;;;;6244775;28;20629;-51
2022/10/23 09:02:03;;;;;;;0.40;0.30;;;23.00;62.20;;;;;;6208784;28;20588;-54
2022/10/23 09:05:14;;;;;;;1.10;0.40;;;22.60;62.10;;;;;;6244377;28;20075;-53
2022/10/23 09:08:28;;;;;;;0.25;0.20;;;22.70;62.10;;;;;;6223039;28;20036;-55
2022/10/23 09:11:35;;;;;;;0.65;0.40;;;22.50;62.00;;;;;;6228213;28;20479;-54
2022/10/23 09:14:56;;;;;;;0.20;0.20;;;22.70;62.20;;;;;;6192753;28;20302;-52
2022/10/23 09:18:00;;;;;;;0.30;0.20;;;22.90;62.50;;;;;;6225645;28;20147;-53
2022/10/23 09:21:07;;;;;;;0.40;0.40;;;22.80;62.50;;;;;;6229425;28;20604;-52
2022/10/23 09:24:17;;;;;;;0.30;0.20;;;23.10;62.80;;;;;;6227399;28;20162;-52
2022/10/23 09:27:19;;;;;;;0.32;0.28;;;23.10;62.80;;;;;;6231334;28;20296;-54
2022/10/23 09:30:27;;;;;;;0.63;0.40;;;22.80;62.60;;;;;;6245849;28;20605;-52
2022/10/23 09:33:28;;;;;;;0.35;0.30;;;23.00;62.80;;;;;;6245764;28;20294;-52
2022/10/23 09:36:29;;;;;;;;;;;23.50;63.30;;;;;;6246974;28;20651;-52
2022/10/23 09:39:33;;;;;;;0.47;0.30;;;23.10;63.30;;;;;;6247001;28;20004;-53
2022/10/23 09:42:34;;;;;;;0.40;0.30;;;22.90;62.90;;;;;;6244166;28;20044;-54
2022/10/23 09:45:41;;;;;;;0.30;0.22;;;23.20;63.40;;;;;;6246761;28;20551;-51
2022/10/23 09:48:57;;;;;;;0.63;0.30;;;23.20;63.60;;;;;;6246811;28;20048;-56
2022/10/23 09:52:04;;;;;;;0.30;0.30;;;22.90;63.50;;;;;;6227486;28;20355;-52
2022/10/23 09:55:19;;;;;;;0.55;0.30;;;23.20;63.50;;;;;;6225275;28;20527;-52
2022/10/23 09:58:28;;;;;;;0.40;0.30;;;22.90;63.70;;;;;;6228482;28;20050;-52
2022/10/23 10:01:34;;;;;;;0.50;0.30;;;24.70;64.10;;;;;;6230634;28;20146;-52
2022/10/23 10:04:57;;;;;;;0.47;0.22;;;23.20;63.70;;;;;;6229485;28;20155;-52
2022/10/23 10:08:04;;;;;;;0.65;0.40;;;23.20;63.80;;;;;;6220318;28;20254;-51
2022/10/23 10:11:13;;;;;;;0.60;0.50;;;23.20;63.90;;;;;;6244724;28;20325;-54
2022/10/23 10:14:39;;;;;;;1.08;0.50;;;23.00;63.80;;;;;;6245060;28;20876;-53
2022/10/23 10:17:51;;;;;;;0.40;0.40;;;23.10;64.10;;;;;;6245187;28;20040;-55
2022/10/23 10:21:01;;;;;;;0.47;0.30;;;23.10;64.10;;;;;;6226779;28;20118;-54
2022/10/23 10:24:09;;;;;;;1.33;0.43;;;23.10;64.10;;;;;;6211844;28;20368;-57
2022/10/23 10:27:26;;;;;;;1.25;0.40;;;23.20;64.30;;;;;;6227641;28;20125;-52
2022/10/23 10:30:35;;;;;;;1.48;0.50;;;23.30;65.00;;;;;;6245365;28;20040;-54
2022/10/23 10:33:47;;;;;;;0.82;0.30;;;23.00;64.30;;;;;;6244660;28;20143;-53
2022/10/23 10:36:52;;;;;;;1.02;0.40;;;23.50;64.70;;;;;;6245577;28;20506;-54
2022/10/23 10:39:59;;;;;;;0.95;0.38;;;23.20;64.50;;;;;;6243513;28;20337;-53
2022/10/23 10:43:18;;;;;;;2.17;0.57;;;23.30;64.40;;;;;;6244233;28;20162;-54
2022/10/23 10:46:28;;;;;;;0.82;0.40;;;23.80;64.90;;;;;;6247186;28;20225;-52
2022/10/23 10:49:37;;;;;;;1.58;1.08;;;22.80;64.40;;;;;;6245167;28;20333;-53
2022/10/23 10:52:58;;;;;;;1.65;0.60;;;23.40;64.70;;;;;;6228036;28;20217;-55
2022/10/23 10:56:03;;;;;;;1.48;0.40;;;23.40;64.80;;;;;;6251784;28;20633;-55
2022/10/23 10:59:14;;;;;;;1.08;0.40;;;22.90;64.50;;;;;;6241236;28;20177;-51
2022/10/23 11:02:25;;;;;;;1.47;0.50;;;23.40;64.90;;;;;;6243869;28;20450;-52
2022/10/23 11:05:32;;;;;;;1.42;0.70;;;23.50;64.80;;;;;;6243524;28;20313;-54
2022/10/23 11:08:35;;;;;;;1.05;0.40;;;23.00;64.70;;;;;;6224172;28;20316;-53
2022/10/23 11:11:57;;;;;;;1.38;0.55;;;23.60;64.90;;;;;;6227894;28;21001;-56
2022/10/23 11:14:59;;;;;;;1.67;0.40;;;23.40;64.90;;;;;;6245601;28;20104;-54
2022/10/23 11:18:04;;;;;;;2.15;0.45;;;23.60;65.10;;;;;;6243401;28;20040;-53
2022/10/23 11:21:21;;;;;;;0.90;0.43;;;23.20;64.80;;;;;;6242913;28;20342;-51
2022/10/23 11:24:47;;;;;;;0.98;0.40;;;23.40;64.90;;;;;;6241978;28;20175;-54
2022/10/23 11:28:03;;;;;;;1.05;0.40;;;23.00;64.60;;;;;;6234605;28;20424;-52
2022/10/23 11:31:24;;;;;;;1.20;0.50;;;23.30;64.60;;;;;;6239781;28;20347;-54
2022/10/23 11:34:50;;;;;;;2.60;0.50;;;23.50;64.70;;;;;;6239550;28;20959;-55
2022/10/23 11:38:13;;;;;;;0.50;0.32;;;23.30;64.60;;;;;;6225660;28;20048;-52
2022/10/23 11:41:19;;;;;;;1.52;0.57;;;23.10;64.30;;;;;;6245853;28;20424;-51
2022/10/23 11:44:40;;;;;;;1.75;0.50;;;22.90;64.00;;;;;;6225670;28;20047;-52
2022/10/23 11:47:42;;;;;;;2.08;0.40;;;23.30;64.10;;;;;;6224484;28;20054;-52
2022/10/23 11:50:51;;;;;;;1.65;0.65;;;23.60;64.50;;;;;;6245975;28;20224;-53
2022/10/23 11:54:03;;;;;;;1.52;0.40;;;23.20;64.50;;;;;;6247157;28;20551;-53
2022/10/23 11:57:11;;;;;;;3.40;0.57;;;23.60;63.90;;;;;;6246357;28;20085;-57
2022/10/23 12:00:20;;;;;;;1.35;0.50;;;23.40;63.60;;;;;;6229648;28;20357;-52
2022/10/23 12:03:27;;;;;;;1.63;0.40;;;23.70;63.40;;;;;;6227997;28;20167;-50
2022/10/23 12:06:37;;;;;;;1.45;0.50;;;23.50;63.20;;;;;;6222463;28;20355;-53
2022/10/23 12:09:42;;;;;;;1.55;0.63;;;23.40;63.10;;;;;;6228786;28;20055;-56
2022/10/23 12:12:55;;;;;;;1.90;0.40;;;23.60;63.00;;;;;;6222525;28;20503;-55
2022/10/23 12:15:56;;;;;;;1.75;0.57;;;23.50;62.90;;;;;;6244126;28;20804;-54
2022/10/23 12:19:19;;;;;;;1.42;0.50;;;23.70;63.00;;;;;;6243817;28;20044;-54
2022/10/23 12:22:27;;;;;;;0.80;0.35;;;23.50;62.70;;;;;;6238683;28;20687;-52
2022/10/23 12:25:40;;;;;;;2.58;0.50;;;23.30;62.50;;;;;;6246211;28;20741;-51
2022/10/23 12:28:49;;;;;;;2.67;0.60;;;23.70;62.60;;;;;;6240198;28;20566;-54
2022/10/23 12:31:56;;;;;;;2.13;0.60;;;23.20;62.20;;;;;;6219286;28;20186;-55
2022/10/23 12:35:18;;;;;;;1.70;0.40;;;23.40;62.40;;;;;;6237611;28;20120;-54
2022/10/23 12:38:23;;;;;;;2.20;0.60;;;23.50;62.30;;;;;;6232191;28;20067;-53
2022/10/23 12:41:27;;;;;;;1.42;0.35;;;23.70;62.60;;;;;;6231740;28;20558;-53
2022/10/23 12:44:29;;;;;;;1.23;0.55;;;23.10;62.30;;;;;;6214540;28;20372;-52
2022/10/23 12:47:31;;;;;;;2.50;0.55;;;23.60;62.70;;;;;;6234115;28;20095;-53
2022/10/23 12:50:34;;;;;;;1.70;0.40;;;23.60;62.50;;;;;;6236141;28;20433;-53
2022/10/23 12:53:35;;;;;;;1.30;0.30;;;23.50;62.60;;;;;;6238540;28;20032;-51
2022/10/23 12:56:38;;;;;;;1.77;0.45;;;23.60;62.60;;;;;;6233397;28;20055;-52
2022/10/23 12:59:41;;;;;;;0.93;0.22;;;23.30;62.50;;;;;;6217711;28;20163;-52
2022/10/23 13:02:43;;;;;;;1.30;0.30;;;23.00;62.10;;;;;;6233200;28;20439;-56
2022/10/23 13:05:44;;;;;;;1.95;0.45;;;23.60;62.60;;;;;;6236501;28;20721;-53
2022/10/23 13:08:47;;;;;;;0.70;0.40;;;23.90;62.30;;;;;;6234701;28;20154;-56
2022/10/23 13:12:19;;;;;;;1.42;0.45;;;23.50;61.90;;;;;;6233691;28;20040;-52
2022/10/23 13:15:22;;;;;;;1.10;0.30;;;23.60;61.60;;;;;;6240372;28;20117;-55
2022/10/23 13:18:23;;;;;;;1.42;0.50;;;23.50;61.40;;;;;;6221234;28;20183;-53
2022/10/23 13:21:28;;;;;;;1.90;0.45;;;23.50;61.10;;;;;;6244994;28;20043;-55
2022/10/23 13:24:30;;;;;;;1.10;0.52;;;23.40;60.70;;;;;;6208914;28;20418;-53
2022/10/23 13:27:33;;;;;;;1.45;0.40;;;23.70;60.60;;;;;;6244111;28;20109;-52
2022/10/23 13:30:38;;;;;;;2.13;0.40;;;23.70;60.40;;;;;;6237649;28;20700;-52
2022/10/23 13:33:41;;;;;;;2.08;0.52;;;23.80;60.10;;;;;;6237447;28;20127;-54
2022/10/23 13:36:58;;;;;;;1.67;0.30;;;23.30;59.60;;;;;;6239369;28;20411;-54
2022/10/23 13:40:03;;;;;;;1.48;0.35;;;23.80;59.50;;;;;;6238563;28;20048;-53
2022/10/23 13:43:15;;;;;;;0.60;0.38;;;23.60;59.00;;;;;;6217801;28;20079;-51
2022/10/23 13:46:21;;;;;;;1.20;0.30;;;23.60;58.80;;;;;;6237024;28;20049;-56
2022/10/23 13:49:23;;;;;;;0.95;0.30;;;23.70;58.40;;;;;;6234058;28;20351;-54
2022/10/23 13:52:24;;;;;;;1.67;0.52;;;23.70;58.20;;;;;;6236400;28;20649;-51
2022/10/23 13:55:27;;;;;;;0.82;0.30;;;23.60;58.20;;;;;;6237775;28;20534;-56
2022/10/23 13:58:29;;;;;;;0.93;0.20;;;23.30;58.30;;;;;;6235502;28;20419;-53
2022/10/23 14:01:34;;;;;;;0.50;0.35;;;23.50;57.50;;;;;;6234691;28;20043;-53
2022/10/23 14:04:38;;;;;;;2.13;0.45;;;23.50;57.00;;;;;;6222699;28;20158;-52
2022/10/23 14:07:40;;;;;;;0.90;0.30;;;23.70;56.90;;;;;;6237553;28;20542;-51
2022/10/23 14:10:42;;;;;;;1.58;0.20;;;23.40;56.50;;;;;;6240569;28;20609;-51
2022/10/23 14:13:44;;;;;;;0.75;0.20;;;23.30;56.30;;;;;;6240148;28;20044;-52
2022/10/23 14:16:45;;;;;;;0.32;0.30;;;23.90;56.10;;;;;;6220187;28;20353;-53
2022/10/23 14:19:47;;;;;;;0.80;0.20;;;23.70;56.00;;;;;;6236862;28;20246;-55
2022/10/23 14:22:48;;;;;;;0.75;0.20;;;23.50;55.60;;;;;;6222320;28;20278;-53
2022/10/23 14:25:50;;;;;;;2.47;0.38;;;23.70;55.30;;;;;;6241686;28;20516;-51
2022/10/23 14:28:53;;;;;;;;;;;23.50;54.90;;;;;;6239575;28;20883;-52
2022/10/23 14:31:54;;;;;;;1.08;0.20;;;23.90;54.90;;;;;;6241286;28;20335;-57
2022/10/23 14:34:55;;;;;;;;;;;23.60;54.90;;;;;;6242526;28;20113;-51
2022/10/23 14:37:57;;;;;;;1.20;0.30;;;24.00;55.20;;;;;;6241410;28;20856;-53
2022/10/23 14:40:58;;;;;;;0.43;0.25;;;23.70;54.80;;;;;;6240188;28;20222;-50
2022/10/23 14:44:00;;;;;;;1.83;0.30;;;23.80;54.30;;;;;;6241285;28;20076;-51
2022/10/23 14:47:05;;;;;;;0.52;0.30;;;23.60;53.60;;;;;;6238974;28;20490;-57
2022/10/23 14:50:09;;;;;;;0.75;0.30;;;24.00;53.70;;;;;;6240496;28;20594;-49
2022/10/23 14:53:11;;;;;;;1.20;0.40;;;23.90;53.20;;;;;;6231186;28;20036;-56
2022/10/23 14:56:13;;;;;;;0.28;0.20;;;23.30;52.90;;;;;;6237096;28;20058;-55
2022/10/23 14:59:15;;;;;;;0.50;0.30;;;23.70;52.80;;;;;;6214167;28;20914;-51
2022/10/23 15:02:17;;;;;;;0.73;0.13;;;23.90;52.80;;;;;;6231650;28;20071;-51
2022/10/23 15:05:19;;;;;;;1.05;0.30;;;23.80;52.60;;;;;;6235196;28;20045;-53
2022/10/23 15:08:21;;;;;;;1.73;0.20;;;23.80;52.50;;;;;;6213174;28;21510;-49
2022/10/23 15:11:24;;;;;;;1.42;0.38;;;23.50;52.00;;;;;;6199828;28;20036;-50
2022/10/23 15:14:26;;;;;;;1.73;0.65;;;23.80;52.00;;;;;;6217187;28;20056;-52
2022/10/23 15:17:27;;;;;;;1.25;0.22;;;23.90;52.00;;;;;;6237212;28;20398;-49
2022/10/23 15:20:29;;;;;;;;;;;23.80;51.90;;;;;;6236569;28;20143;-55
2022/10/23 15:23:31;;;;;;;0.32;0.17;;;23.60;51.00;;;;;;6235970;28;20735;-53
2022/10/23 15:26:32;;;;;;;0.75;0.30;;;24.00;52.20;;;;;;6235378;28;20558;-51
2022/10/23 15:29:34;;;;;;;0.68;0.30;;;23.80;51.80;;;;;;6234749;28;20044;-54
2022/10/23 15:32:36;;;;;;;2.75;0.30;;;23.80;51.60;;;;;;6234082;28;20269;-54
2022/10/23 15:35:37;;;;;;;1.27;0.50;;;23.90;51.50;;;;;;6212324;28;20044;-51
2022/10/23 15:38:39;;;;;;;1.75;0.47;;;23.70;51.40;;;;;;6237055;28;20592;-53
2022/10/23 15:41:41;;;;;;;2.17;0.32;;;23.90;51.40;;;;;;6236509;28;20452;-52
2022/10/23 15:44:43;;;;;;;1.85;0.20;;;23.90;51.40;;;;;;6236393;28;20036;-54
2022/10/23 15:47:45;;;;;;;0.60;0.20;;;23.50;51.10;;;;;;6216164;28;20327;-54
2022/10/23 15:50:47;;;;;;;0.73;0.30;;;23.50;51.40;;;;;;6239806;28;20657;-52
2022/10/23 15:53:49;;;;;;;1.05;0.30;;;24.00;51.60;;;;;;6239870;28;20318;-57
2022/10/23 15:56:52;;;;;;;1.17;0.40;;;23.50;51.40;;;;;;6242777;28;20146;-53
2022/10/23 15:59:55;;;;;;;1.70;0.40;;;24.00;51.50;;;;;;6220078;28;20160;-50
2022/10/23 16:02:57;;;;;;;0.77;0.38;;;24.20;51.80;;;;;;6241312;28;20300;-53
2022/10/23 16:05:58;;;;;;;0.73;0.20;;;23.60;51.40;;;;;;6240360;28;20160;-50
2022/10/23 16:09:00;;;;;;;1.50;0.50;;;23.50;51.50;;;;;;6237765;28;21576;-54
2022/10/23 16:12:01;;;;;;;2.42;0.30;;;24.10;51.80;;;;;;6238237;28;20258;-52
2022/10/23 16:15:03;;;;;;;;;;;23.90;52.00;;;;;;6239702;28;20153;-53
2022/10/23 16:18:06;;;;;;;1.25;0.45;;;24.00;52.20;;;;;;6237221;28;20211;-52